Time;durP1;ratioP1;P1;durP2;ratioP2;P2;SDS_P1;SDS_P2;PMS_P1;PMS_P2;Temp;Humidity;BMP_temperature;BMP_pressure;BME280_temperature;BME280_humidity;BME280_pressure;Samples;Min_cycle;Max_cycle;Signal;HPM_P1;HPM_P2
2022/05/08 00:00:55;;;;;;;59.85;23.08;;;;;;;;;;5000748;28;20137;-72
2022/05/08 00:03:20;;;;;;;57.03;22.95;;;;;;;;;;5005672;28;20137;-71
2022/05/08 00:05:46;;;;;;;64.25;22.88;;;;;;;;;;4998957;28;20030;-72
2022/05/08 00:08:11;;;;;;;67.53;25.20;;;;;;;;;;5010373;28;20041;-72
2022/05/08 00:10:36;;;;;;;66.03;24.60;;;;;;;;;;5004935;28;20053;-71
2022/05/08 00:13:02;;;;;;;69.13;24.73;;;;;;;;;;5001519;28;20073;-72
2022/05/08 00:15:28;;;;;;;66.40;25.08;;;;;;;;;;5003093;28;20057;-71
2022/05/08 00:17:53;;;;;;;59.15;23.02;;;;;;;;;;5006783;28;20025;-72
2022/05/08 00:20:18;;;;;;;73.57;27.10;;;;;;;;;;5021669;28;20091;-72
2022/05/08 00:22:45;;;;;;;60.47;24.02;;;;;;;;;;5003540;28;20507;-72
2022/05/08 00:25:11;;;;;;;66.38;23.98;;;;;;;;;;5018985;28;20463;-71
2022/05/08 00:27:36;;;;;;;60.85;24.42;;;;;;;;;;4997370;28;20057;-71
2022/05/08 00:30:03;;;;;;;62.38;23.95;;;;;;;;;;5006566;28;20021;-72
2022/05/08 00:32:28;;;;;;;61.35;23.20;;;;;;;;;;5005560;28;20531;-71
2022/05/08 00:34:54;;;;;;;58.22;22.42;;;;;;;;;;5006205;28;20042;-72
2022/05/08 00:37:19;;;;;;;56.13;22.02;;;;;;;;;;5005731;28;20042;-72
2022/05/08 00:39:44;;;;;;;47.65;19.65;;;;;;;;;;5005375;28;20033;-71
2022/05/08 00:42:10;;;;;;;53.50;22.95;;;;;;;;;;5004002;28;20038;-72
2022/05/08 00:44:35;;;;;;;54.63;22.80;;;;;;;;;;5003828;28;20100;-71
2022/05/08 00:47:01;;;;;;;52.33;21.75;;;;;;;;;;5005070;28;20070;-71
2022/05/08 00:49:26;;;;;;;54.15;21.58;;;;;;;;;;5005466;28;20100;-71
2022/05/08 00:51:51;;;;;;;47.30;20.65;;;;;;;;;;5020682;28;20069;-71
2022/05/08 00:54:17;;;;;;;49.88;21.70;;;;;;;;;;5001425;28;20038;-71
2022/05/08 00:56:43;;;;;;;48.88;20.73;;;;;;;;;;5004265;28;20038;-71
2022/05/08 00:59:09;;;;;;;43.42;19.40;;;;;;;;;;5003440;28;20476;-71
2022/05/08 01:01:34;;;;;;;45.63;20.92;;;;;;;;;;5019408;28;20069;-71
2022/05/08 01:04:00;;;;;;;46.20;20.80;;;;;;;;;;5000927;28;20049;-71
2022/05/08 01:06:26;;;;;;;53.75;21.92;;;;;;;;;;5003710;28;20034;-72
2022/05/08 01:08:52;;;;;;;49.33;19.85;;;;;;;;;;4996510;28;20022;-71
2022/05/08 01:11:18;;;;;;;45.20;19.75;;;;;;;;;;5002572;28;20672;-72
2022/05/08 01:13:44;;;;;;;45.75;20.77;;;;;;;;;;4987681;28;20069;-71
2022/05/08 01:16:12;;;;;;;46.72;20.17;;;;;;;;;;4987952;28;20049;-72
2022/05/08 01:18:38;;;;;;;47.10;20.05;;;;;;;;;;5002885;28;20110;-72
2022/05/08 01:21:04;;;;;;;50.88;20.08;;;;;;;;;;5007022;28;20507;-71
2022/05/08 01:23:29;;;;;;;47.28;21.15;;;;;;;;;;5006024;28;20042;-72
2022/05/08 01:25:56;;;;;;;47.58;19.83;;;;;;;;;;5006907;28;20421;-72
2022/05/08 01:28:23;;;;;;;50.05;20.10;;;;;;;;;;5004972;28;20427;-72
2022/05/08 01:30:51;;;;;;;43.92;19.50;;;;;;;;;;5002177;28;20038;-71
2022/05/08 01:33:18;;;;;;;43.47;19.23;;;;;;;;;;5006395;28;20134;-71
2022/05/08 01:35:44;;;;;;;47.60;19.73;;;;;;;;;;5007054;28;20069;-72
2022/05/08 01:38:12;;;;;;;41.08;18.20;;;;;;;;;;5005326;28;20026;-70
2022/05/08 01:40:38;;;;;;;43.42;19.10;;;;;;;;;;5000957;28;20034;-72
2022/05/08 01:43:05;;;;;;;40.47;18.38;;;;;;;;;;5007361;28;20030;-71
2022/05/08 01:45:30;;;;;;;43.78;18.45;;;;;;;;;;5006893;28;20498;-71
2022/05/08 01:50:40;;;;;;;41.40;18.60;;;;;;;;;;5006875;28;20045;-72
2022/05/08 01:53:06;;;;;;;39.00;17.13;;;;;;;;;;5007103;28;20034;-71
2022/05/08 01:55:31;;;;;;;40.58;18.48;;;;;;;;;;5010625;28;20053;-71
2022/05/08 01:57:58;;;;;;;37.10;16.83;;;;;;;;;;5009094;28;20064;-71
2022/05/08 02:00:24;;;;;;;40.05;16.50;;;;;;;;;;5008999;28;20033;-71
2022/05/08 02:02:51;;;;;;;40.20;17.42;;;;;;;;;;5010830;28;20026;-72
2022/05/08 02:05:17;;;;;;;37.42;17.38;;;;;;;;;;5022268;28;20041;-71
2022/05/08 02:07:47;;;;;;;36.58;16.23;;;;;;;;;;5025636;28;20030;-71
2022/05/08 02:10:13;;;;;;;40.00;16.75;;;;;;;;;;5002558;28;20606;-71
2022/05/08 02:12:39;;;;;;;37.72;16.70;;;;;;;;;;5009038;28;20076;-71
2022/05/08 02:15:06;;;;;;;33.58;16.05;;;;;;;;;;5010313;28;20026;-71
2022/05/08 02:17:31;;;;;;;35.08;15.18;;;;;;;;;;5009649;28;20030;-72
2022/05/08 02:19:57;;;;;;;34.03;16.50;;;;;;;;;;5009796;28;20461;-71
2022/05/08 02:22:22;;;;;;;31.10;15.13;;;;;;;;;;5003554;28;20560;-71
2022/05/08 02:24:47;;;;;;;35.65;16.77;;;;;;;;;;5009333;28;20030;-71
2022/05/08 02:27:13;;;;;;;40.08;16.17;;;;;;;;;;5007343;28;20093;-71
2022/05/08 02:29:38;;;;;;;35.85;16.13;;;;;;;;;;5008523;28;20050;-71
2022/05/08 02:32:04;;;;;;;35.55;16.05;;;;;;;;;;5006503;28;20103;-71
2022/05/08 02:34:29;;;;;;;31.83;15.10;;;;;;;;;;5008798;28;20469;-71
2022/05/08 02:36:54;;;;;;;32.58;15.68;;;;;;;;;;5008556;28;20049;-72
2022/05/08 02:39:19;;;;;;;34.88;15.77;;;;;;;;;;5007930;28;20021;-72
2022/05/08 02:41:45;;;;;;;32.88;15.98;;;;;;;;;;5007938;28;20160;-71
2022/05/08 02:44:11;;;;;;;38.83;17.05;;;;;;;;;;5007977;28;20044;-71
2022/05/08 02:46:36;;;;;;;33.88;15.23;;;;;;;;;;5005394;28;20037;-71
2022/05/08 02:49:02;;;;;;;39.30;17.00;;;;;;;;;;5008973;28;20570;-71
2022/05/08 02:51:27;;;;;;;33.10;16.45;;;;;;;;;;5007126;28;20018;-71
2022/05/08 02:53:52;;;;;;;35.28;15.13;;;;;;;;;;5009374;28;20037;-71
2022/05/08 02:59:01;;;;;;;31.65;14.52;;;;;;;;;;5007731;28;20042;-71
2022/05/08 03:01:27;;;;;;;31.02;14.30;;;;;;;;;;5008996;28;20042;-71
2022/05/08 03:03:52;;;;;;;30.20;14.73;;;;;;;;;;5008975;28;20030;-71
2022/05/08 03:06:17;;;;;;;34.03;14.10;;;;;;;;;;5009681;28;20038;-71
2022/05/08 03:08:43;;;;;;;33.00;14.23;;;;;;;;;;5007878;28;20042;-71
2022/05/08 03:11:26;;;;;;;29.83;13.98;;;;;;;;;;5023820;28;20069;-71
2022/05/08 03:13:53;;;;;;;31.20;14.15;;;;;;;;;;4999464;28;20033;-71
2022/05/08 03:16:18;;;;;;;28.48;13.68;;;;;;;;;;5007805;28;20511;-71
2022/05/08 03:18:45;;;;;;;27.50;12.65;;;;;;;;;;5008084;28;20034;-71
2022/05/08 03:21:12;;;;;;;28.48;11.98;;;;;;;;;;5008533;28;20064;-70
2022/05/08 03:23:38;;;;;;;25.90;12.55;;;;;;;;;;5004988;28;20091;-71
2022/05/08 03:26:04;;;;;;;28.23;12.75;;;;;;;;;;5005984;28;20022;-70
2022/05/08 03:28:31;;;;;;;23.88;11.70;;;;;;;;;;5006793;28;20037;-71
2022/05/08 03:30:58;;;;;;;25.95;12.30;;;;;;;;;;5001368;28;20030;-71
2022/05/08 03:33:24;;;;;;;31.30;12.98;;;;;;;;;;5007373;28;20036;-71
2022/05/08 03:35:49;;;;;;;24.92;11.45;;;;;;;;;;5006844;28;20203;-71
2022/05/08 03:38:14;;;;;;;26.38;11.32;;;;;;;;;;5008381;28;20038;-71
2022/05/08 03:40:40;;;;;;;25.05;11.02;;;;;;;;;;5007952;28;20125;-71
2022/05/08 03:43:05;;;;;;;19.92;10.98;;;;;;;;;;5004988;28;20133;-71
2022/05/08 03:45:31;;;;;;;21.35;10.27;;;;;;;;;;4998712;28;20026;-71
2022/05/08 03:47:59;;;;;;;21.85;10.80;;;;;;;;;;5008013;28;20038;-71
2022/05/08 03:50:24;;;;;;;23.52;10.18;;;;;;;;;;5001423;28;20072;-71
2022/05/08 03:52:50;;;;;;;23.42;10.10;;;;;;;;;;5007658;28;20088;-71
2022/05/08 03:55:15;;;;;;;18.00;9.32;;;;;;;;;;5005068;28;20046;-71
2022/05/08 03:57:41;;;;;;;20.73;9.77;;;;;;;;;;5003707;28;20464;-71
2022/05/08 04:00:08;;;;;;;20.80;10.57;;;;;;;;;;5003822;28;20623;-71
2022/05/08 04:02:33;;;;;;;20.83;9.68;;;;;;;;;;5007634;28;20050;-71
2022/05/08 04:05:00;;;;;;;23.13;10.27;;;;;;;;;;5006608;28;20076;-71
2022/05/08 04:07:26;;;;;;;19.70;9.57;;;;;;;;;;5007652;28;20030;-71
2022/05/08 04:09:51;;;;;;;20.70;9.57;;;;;;;;;;5001329;28;20037;-71
2022/05/08 04:12:16;;;;;;;19.38;8.75;;;;;;;;;;5007095;28;20049;-71
2022/05/08 04:14:42;;;;;;;20.33;9.52;;;;;;;;;;5001784;28;20125;-71
2022/05/08 04:17:07;;;;;;;27.83;9.93;;;;;;;;;;5007411;28;20052;-71
2022/05/08 04:19:33;;;;;;;18.63;8.50;;;;;;;;;;5007223;28;20078;-71
2022/05/08 04:24:42;;;;;;;18.65;8.75;;;;;;;;;;4998547;28;20052;-71
2022/05/08 04:27:08;;;;;;;21.77;8.38;;;;;;;;;;4997331;28;20431;-71
2022/05/08 04:29:33;;;;;;;16.38;8.57;;;;;;;;;;5005764;28;20058;-71
2022/05/08 04:31:59;;;;;;;17.35;9.00;;;;;;;;;;5007082;28;20526;-71
2022/05/08 04:34:24;;;;;;;16.60;7.97;;;;;;;;;;5006835;28;20415;-71
2022/05/08 04:36:49;;;;;;;14.35;7.85;;;;;;;;;;5006435;28;20034;-71
2022/05/08 04:39:15;;;;;;;14.27;7.50;;;;;;;;;;5006643;28;20074;-71
2022/05/08 04:41:40;;;;;;;15.60;7.45;;;;;;;;;;4996965;28;20495;-72
2022/05/08 04:44:05;;;;;;;13.13;7.00;;;;;;;;;;4999828;28;20049;-71
2022/05/08 04:46:31;;;;;;;13.95;7.30;;;;;;;;;;5002873;28;20034;-72
2022/05/08 04:48:57;;;;;;;15.35;7.15;;;;;;;;;;5011441;28;21142;-71
2022/05/08 04:51:22;;;;;;;12.43;7.03;;;;;;;;;;5007325;28;20079;-72
2022/05/08 04:53:47;;;;;;;14.20;6.72;;;;;;;;;;5005509;28;20045;-71
2022/05/08 04:56:13;;;;;;;14.65;6.78;;;;;;;;;;5006916;28;20042;-71
2022/05/08 04:58:38;;;;;;;12.82;6.75;;;;;;;;;;5005395;28;20426;-71
2022/05/08 05:01:04;;;;;;;16.42;7.18;;;;;;;;;;5004705;28;20135;-71
2022/05/08 05:03:29;;;;;;;10.77;6.18;;;;;;;;;;4998643;28;20022;-71
2022/05/08 05:05:55;;;;;;;13.25;6.35;;;;;;;;;;5002507;28;20010;-72
2022/05/08 05:08:21;;;;;;;14.68;6.93;;;;;;;;;;5005729;28;20034;-71
2022/05/08 05:10:47;;;;;;;13.88;7.25;;;;;;;;;;5000216;28;20072;-69
2022/05/08 05:13:12;;;;;;;14.55;6.45;;;;;;;;;;5003738;28;20034;-70
2022/05/08 05:15:38;;;;;;;12.05;6.88;;;;;;;;;;4993358;28;20088;-70
2022/05/08 05:18:03;;;;;;;13.63;6.47;;;;;;;;;;5005029;28;20018;-72
2022/05/08 05:20:31;;;;;;;16.20;7.38;;;;;;;;;;4997049;28;20038;-72
2022/05/08 05:23:01;;;;;;;13.60;6.90;;;;;;;;;;5004466;28;20506;-71
2022/05/08 05:25:29;;;;;;;11.60;6.78;;;;;;;;;;5001607;28;20030;-72
2022/05/08 05:27:56;;;;;;;13.77;6.82;;;;;;;;;;5004116;28;20543;-72
2022/05/08 05:30:21;;;;;;;12.85;6.70;;;;;;;;;;5009115;28;20036;-72
2022/05/08 05:32:47;;;;;;;15.13;7.57;;;;;;;;;;5009205;28;20033;-72
2022/05/08 05:35:13;;;;;;;12.70;6.82;;;;;;;;;;5006024;28;20041;-71
2022/05/08 05:37:39;;;;;;;14.93;6.60;;;;;;;;;;5002954;28;20042;-71
2022/05/08 05:40:06;;;;;;;12.00;7.05;;;;;;;;;;5006952;28;20582;-72
2022/05/08 05:42:32;;;;;;;14.50;7.03;;;;;;;;;;5008016;28;20029;-71
2022/05/08 05:44:57;;;;;;;12.50;7.05;;;;;;;;;;5007774;28;20022;-71
2022/05/08 05:50:08;;;;;;;10.93;7.20;;;;;;;;;;4997565;28;20423;-71
2022/05/08 05:52:37;;;;;;;14.00;7.15;;;;;;;;;;5007939;28;20569;-71
2022/05/08 05:55:06;;;;;;;18.33;7.75;;;;;;;;;;4997303;28;20240;-71
2022/05/08 05:57:36;;;;;;;13.98;7.50;;;;;;;;;;5008760;28;20026;-70
2022/05/08 06:00:06;;;;;;;15.75;7.68;;;;;;;;;;5004424;28;20018;-71
2022/05/08 06:02:31;;;;;;;14.57;7.78;;;;;;;;;;5011579;28;20541;-71
2022/05/08 06:04:57;;;;;;;16.85;8.05;;;;;;;;;;5008619;28;20129;-71
2022/05/08 06:07:22;;;;;;;17.40;8.57;;;;;;;;;;5007244;28;20036;-71
2022/05/08 06:09:47;;;;;;;15.05;7.57;;;;;;;;;;5020674;28;20046;-71
2022/05/08 06:12:13;;;;;;;15.55;7.72;;;;;;;;;;4998790;28;20483;-71
2022/05/08 06:14:38;;;;;;;12.27;7.15;;;;;;;;;;4989313;28;20046;-71
2022/05/08 06:17:04;;;;;;;14.05;7.68;;;;;;;;;;5005724;28;20046;-70
2022/05/08 06:19:31;;;;;;;16.60;7.60;;;;;;;;;;5007957;28;20117;-69
2022/05/08 06:21:57;;;;;;;16.55;8.20;;;;;;;;;;5004562;28;20843;-71
2022/05/08 06:24:22;;;;;;;14.57;7.93;;;;;;;;;;5001508;28;20030;-71
2022/05/08 06:26:48;;;;;;;14.13;8.18;;;;;;;;;;5004551;28;20096;-71
2022/05/08 06:29:13;;;;;;;17.98;9.20;;;;;;;;;;5005161;28;20045;-71
2022/05/08 06:31:38;;;;;;;17.25;8.40;;;;;;;;;;5006125;28;20048;-70
2022/05/08 06:34:04;;;;;;;21.77;8.40;;;;;;;;;;5006839;28;20046;-71
2022/05/08 06:36:29;;;;;;;14.98;7.65;;;;;;;;;;5008077;28;20067;-70
2022/05/08 06:38:54;;;;;;;17.35;8.30;;;;;;;;;;5005229;28;20553;-70
2022/05/08 06:41:20;;;;;;;15.95;8.25;;;;;;;;;;5022552;28;20037;-70
2022/05/08 06:43:46;;;;;;;17.17;8.68;;;;;;;;;;5006490;28;20056;-70
2022/05/08 06:46:11;;;;;;;16.13;8.30;;;;;;;;;;5022684;28;20468;-70
2022/05/08 06:48:37;;;;;;;16.83;8.70;;;;;;;;;;5005636;28;20029;-70
2022/05/08 06:51:03;;;;;;;15.73;9.30;;;;;;;;;;5023799;28;20407;-71
2022/05/08 06:53:29;;;;;;;20.05;8.50;;;;;;;;;;5005197;28;20034;-70
2022/05/08 06:55:54;;;;;;;17.52;8.82;;;;;;;;;;5008899;28;20052;-71
2022/05/08 06:58:24;;;;;;;16.83;8.98;;;;;;;;;;5008417;28;20066;-71
2022/05/08 07:03:34;;;;;;;15.50;9.15;;;;;;;;;;5009526;28;20041;-71
2022/05/08 07:06:00;;;;;;;16.40;8.75;;;;;;;;;;5009605;28;20030;-71
2022/05/08 07:08:25;;;;;;;13.73;8.45;;;;;;;;;;5006313;28;20469;-71
2022/05/08 07:10:51;;;;;;;14.43;8.90;;;;;;;;;;5003568;28;20046;-71
2022/05/08 07:13:16;;;;;;;14.20;8.38;;;;;;;;;;5005381;28;20056;-72
2022/05/08 07:15:42;;;;;;;17.52;9.38;;;;;;;;;;5007097;28;20060;-71
2022/05/08 07:18:07;;;;;;;16.30;9.45;;;;;;;;;;5005216;28;20036;-73
2022/05/08 07:20:33;;;;;;;20.75;9.27;;;;;;;;;;5002234;28;20049;-72
2022/05/08 07:22:59;;;;;;;16.63;9.43;;;;;;;;;;5005387;28;20038;-72
2022/05/08 07:25:24;;;;;;;20.42;9.15;;;;;;;;;;5000039;28;20141;-72
2022/05/08 07:27:49;;;;;;;17.38;9.57;;;;;;;;;;4995998;28;20049;-72
2022/05/08 07:30:15;;;;;;;22.48;10.30;;;;;;;;;;5016905;28;20100;-72
2022/05/08 07:32:40;;;;;;;22.42;11.20;;;;;;;;;;5003483;28;20042;-72
2022/05/08 07:37:50;;;;;;;26.00;12.55;;;;;;;;;;5003820;28;20537;-73
2022/05/08 07:40:16;;;;;;;25.30;12.82;;;;;;;;;;5005013;28;20049;-73
2022/05/08 07:42:41;;;;;;;21.85;11.95;;;;;;;;;;5003801;28;20432;-73
2022/05/08 07:45:06;;;;;;;26.63;11.98;;;;;;;;;;5007546;28;20030;-73
2022/05/08 07:47:32;;;;;;;22.48;12.73;;;;;;;;;;5006096;28;20069;-72
2022/05/08 07:49:57;;;;;;;27.48;12.38;;;;;;;;;;4998122;28;20045;-73
2022/05/08 07:52:23;;;;;;;23.33;12.10;;;;;;;;;;4996591;28;20409;-73
2022/05/08 07:54:49;;;;;;;25.90;13.18;;;;;;;;;;5002454;28;20044;-71
2022/05/08 07:57:15;;;;;;;26.23;11.77;;;;;;;;;;5006391;28;20067;-71
2022/05/08 07:59:41;;;;;;;23.90;12.43;;;;;;;;;;4999491;28;20041;-71
2022/05/08 08:02:07;;;;;;;27.38;12.52;;;;;;;;;;5000340;28;20070;-71
2022/05/08 08:04:34;;;;;;;23.70;12.18;;;;;;;;;;5001171;28;20101;-71
2022/05/08 08:07:00;;;;;;;22.13;11.70;;;;;;;;;;4998953;28;20554;-71
2022/05/08 08:09:25;;;;;;;22.95;12.38;;;;;;;;;;4998831;28;20044;-71
2022/05/08 08:11:51;;;;;;;27.25;12.48;;;;;;;;;;5000522;28;20030;-72
2022/05/08 08:14:16;;;;;;;27.75;12.18;;;;;;;;;;5002742;28;20041;-71
2022/05/08 08:16:41;;;;;;;22.27;11.65;;;;;;;;;;4995924;28;20046;-72
2022/05/08 08:19:07;;;;;;;26.35;12.30;;;;;;;;;;5004472;28;20094;-72
2022/05/08 08:21:33;;;;;;;25.48;12.27;;;;;;;;;;5006970;28;20037;-72
2022/05/08 08:23:58;;;;;;;27.77;11.73;;;;;;;;;;5007587;28;20040;-72
2022/05/08 08:26:24;;;;;;;24.40;13.05;;;;;;;;;;5006208;28;20060;-72
2022/05/08 08:28:49;;;;;;;22.42;11.68;;;;;;;;;;5006342;28;20041;-72
2022/05/08 08:31:15;;;;;;;22.95;11.57;;;;;;;;;;5007255;28;20049;-72
2022/05/08 08:33:41;;;;;;;25.33;11.77;;;;;;;;;;5005459;28;20030;-72
2022/05/08 08:36:08;;;;;;;21.50;11.30;;;;;;;;;;5004702;28;20410;-72
2022/05/08 08:38:34;;;;;;;21.08;11.57;;;;;;;;;;5005681;28;20026;-72
2022/05/08 08:41:04;;;;;;;23.58;11.82;;;;;;;;;;5007236;28;20065;-72
2022/05/08 08:47:42;;;;;;;24.25;12.60;;;;;;;;;;5007538;28;20038;-72
2022/05/08 08:49:05;;;;;;;25.27;12.25;;;;;;;;;;5007472;28;20053;-72
2022/05/08 08:51:30;;;;;;;26.20;12.75;;;;;;;;;;5006361;28;20483;-72
2022/05/08 08:53:57;;;;;;;26.00;12.80;;;;;;;;;;5006331;28;20045;-72
2022/05/08 08:56:22;;;;;;;27.85;13.32;;;;;;;;;;5008253;28;20057;-72
2022/05/08 08:58:47;;;;;;;25.25;12.90;;;;;;;;;;5004235;28;20073;-72
2022/05/08 09:01:16;;;;;;;28.05;12.52;;;;;;;;;;5006736;28;20061;-72
2022/05/08 09:03:41;;;;;;;23.30;12.48;;;;;;;;;;4991933;28;20060;-72
2022/05/08 09:06:08;;;;;;;25.73;12.45;;;;;;;;;;5000505;28;20026;-73
2022/05/08 09:08:35;;;;;;;22.42;11.60;;;;;;;;;;5008146;28;20034;-72
2022/05/08 09:11:01;;;;;;;22.42;11.40;;;;;;;;;;5021229;28;20029;-73
2022/05/08 09:13:31;;;;;;;23.25;10.63;;;;;;;;;;5008255;28;20049;-73
2022/05/08 09:16:04;;;;;;;22.90;12.65;;;;;;;;;;5000706;28;20590;-72
2022/05/08 09:18:42;;;;;;;26.25;12.57;;;;;;;;;;5003200;28;20029;-72
2022/05/08 09:24:09;;;;;;;23.08;11.85;;;;;;;;;;5008336;28;20076;-73
2022/05/08 09:26:36;;;;;;;23.75;12.25;;;;;;;;;;5009584;28;20089;-72
2022/05/08 09:29:03;;;;;;;22.63;12.57;;;;;;;;;;5010822;28;20125;-73
2022/05/08 09:31:38;;;;;;;25.80;12.55;;;;;;;;;;5010918;28;20465;-73
2022/05/08 09:34:03;;;;;;;24.23;12.07;;;;;;;;;;5010500;28;20045;-72
2022/05/08 09:36:28;;;;;;;21.23;11.93;;;;;;;;;;5006760;28;20255;-74
2022/05/08 09:38:55;;;;;;;24.08;11.32;;;;;;;;;;5004429;28;20026;-74
2022/05/08 09:41:22;;;;;;;20.83;10.80;;;;;;;;;;5006122;28;20050;-72
2022/05/08 09:43:52;;;;;;;22.83;11.50;;;;;;;;;;5009019;28;20045;-73
2022/05/08 09:46:20;;;;;;;23.27;11.98;;;;;;;;;;5008934;28;20450;-73
2022/05/08 09:48:45;;;;;;;21.90;11.07;;;;;;;;;;5009781;28;20038;-73
2022/05/08 09:51:12;;;;;;;23.15;11.77;;;;;;;;;;5009491;28;20065;-74
2022/05/08 09:53:39;;;;;;;20.77;11.05;;;;;;;;;;5007708;28;20068;-74
2022/05/08 09:56:06;;;;;;;23.73;11.13;;;;;;;;;;5002142;28;20037;-72
2022/05/08 09:58:32;;;;;;;20.45;11.77;;;;;;;;;;5007249;28;20061;-72
2022/05/08 10:00:58;;;;;;;20.92;11.23;;;;;;;;;;5007571;28;20060;-72
2022/05/08 10:03:24;;;;;;;20.65;10.50;;;;;;;;;;5009981;28;20116;-71
2022/05/08 10:05:50;;;;;;;21.08;10.50;;;;;;;;;;5025391;28;20033;-72
2022/05/08 10:08:21;;;;;;;21.95;10.55;;;;;;;;;;5025040;28;20037;-72
2022/05/08 10:13:58;;;;;;;21.60;10.80;;;;;;;;;;5009400;28;20041;-72
2022/05/08 10:16:57;;;;;;;20.17;10.93;;;;;;;;;;5003483;28;20422;-71
2022/05/08 10:19:26;;;;;;;23.23;10.27;;;;;;;;;;5002025;28;20042;-71
2022/05/08 10:21:57;;;;;;;22.38;10.52;;;;;;;;;;5005799;28;20037;-72
2022/05/08 10:24:47;;;;;;;22.50;11.55;;;;;;;;;;5010271;28;20080;-72
2022/05/08 10:27:16;;;;;;;20.80;10.32;;;;;;;;;;4990015;28;20124;-72
2022/05/08 10:29:48;;;;;;;17.80;8.88;;;;;;;;;;5008404;28;20088;-72
2022/05/08 10:32:33;;;;;;;16.17;8.65;;;;;;;;;;5009423;28;20121;-72
2022/05/08 10:35:10;;;;;;;18.23;8.02;;;;;;;;;;4996812;28;20581;-72
2022/05/08 10:37:39;;;;;;;20.98;9.40;;;;;;;;;;4988570;28;20035;-72
2022/05/08 10:40:25;;;;;;;15.73;7.55;;;;;;;;;;4990224;28;20125;-72
2022/05/08 10:43:18;;;;;;;15.60;7.93;;;;;;;;;;4989896;28;20054;-72
2022/05/08 10:45:44;;;;;;;13.70;6.87;;;;;;;;;;4988597;28;20124;-72
2022/05/08 10:48:12;;;;;;;12.75;6.93;;;;;;;;;;4988675;28;20388;-72
2022/05/08 10:50:52;;;;;;;14.38;7.20;;;;;;;;;;4989386;28;20035;-72
2022/05/08 10:53:24;;;;;;;15.60;7.22;;;;;;;;;;4989492;28;20046;-73
2022/05/08 10:55:51;;;;;;;18.30;6.90;;;;;;;;;;4989542;28;20046;-72
2022/05/08 10:58:17;;;;;;;11.65;6.20;;;;;;;;;;5008048;28;20119;-72
2022/05/08 11:00:42;;;;;;;12.52;6.05;;;;;;;;;;4992393;28;20081;-75
2022/05/08 11:03:08;;;;;;;11.52;5.75;;;;;;;;;;4989765;28;20026;-75
2022/05/08 11:05:36;;;;;;;13.43;6.47;;;;;;;;;;4996819;28;20049;-76
2022/05/08 11:08:02;;;;;;;14.68;5.82;;;;;;;;;;5008167;28;21976;-75
2022/05/08 11:10:32;;;;;;;10.95;5.90;;;;;;;;;;5009094;28;20129;-75
2022/05/08 11:13:15;;;;;;;12.35;5.35;;;;;;;;;;5005408;28;20033;-75
2022/05/08 11:15:40;;;;;;;10.27;5.22;;;;;;;;;;5009146;28;20033;-75
2022/05/08 11:18:10;;;;;;;9.63;4.57;;;;;;;;;;5002846;28;20022;-75
2022/05/08 11:20:48;;;;;;;10.82;4.50;;;;;;;;;;5006077;28;20194;-75
2022/05/08 11:23:15;;;;;;;7.20;3.78;;;;;;;;;;4986601;28;20035;-75
2022/05/08 11:25:45;;;;;;;9.73;4.90;;;;;;;;;;5000822;28;20371;-76
2022/05/08 11:28:15;;;;;;;7.40;3.55;;;;;;;;;;5000082;28;20488;-75
2022/05/08 11:30:42;;;;;;;8.18;3.80;;;;;;;;;;4987470;28;20487;-75
2022/05/08 11:36:04;;;;;;;9.48;4.28;;;;;;;;;;5007339;28;20056;-76
2022/05/08 11:38:40;;;;;;;5.82;3.20;;;;;;;;;;5005752;28;20458;-75
2022/05/08 11:41:08;;;;;;;6.18;3.65;;;;;;;;;;5007456;28;20034;-75
2022/05/08 11:43:43;;;;;;;8.25;3.75;;;;;;;;;;5006736;28;20453;-75
2022/05/08 11:46:15;;;;;;;6.35;3.60;;;;;;;;;;5005787;28;20125;-75
2022/05/08 11:48:41;;;;;;;17.67;5.05;;;;;;;;;;5006629;28;20030;-75
2022/05/08 11:51:10;;;;;;;6.93;3.40;;;;;;;;;;5007685;28;20025;-76
2022/05/08 11:53:45;;;;;;;6.25;3.35;;;;;;;;;;5007025;28;20040;-76
2022/05/08 11:56:32;;;;;;;6.60;2.90;;;;;;;;;;5007111;28;20565;-75
2022/05/08 11:58:59;;;;;;;5.88;3.00;;;;;;;;;;5005460;28;20026;-75
2022/05/08 12:01:35;;;;;;;8.23;2.83;;;;;;;;;;5007133;28;20099;-75
2022/05/08 12:04:21;;;;;;;5.50;2.50;;;;;;;;;;5006342;28;20088;-75
2022/05/08 12:07:15;;;;;;;6.57;3.10;;;;;;;;;;4997331;28;20120;-74
2022/05/08 12:09:49;;;;;;;6.13;2.63;;;;;;;;;;4998045;28;20037;-74
2022/05/08 12:12:29;;;;;;;8.07;2.85;;;;;;;;;;4999473;28;20119;-74
2022/05/08 12:15:15;;;;;;;5.97;2.78;;;;;;;;;;4993154;28;20133;-71
2022/05/08 12:17:44;;;;;;;8.52;2.80;;;;;;;;;;4988411;28;20045;-72
2022/05/08 12:20:12;;;;;;;6.78;2.60;;;;;;;;;;5000406;28;20816;-73
2022/05/08 12:22:38;;;;;;;5.25;2.78;;;;;;;;;;4984201;28;20435;-75
2022/05/08 12:25:04;;;;;;;4.70;2.53;;;;;;;;;;5000551;28;20042;-72
2022/05/08 12:27:30;;;;;;;6.10;2.50;;;;;;;;;;4999788;28;20077;-69
2022/05/08 12:29:56;;;;;;;10.90;3.10;;;;;;;;;;4999244;28;20022;-70
2022/05/08 12:32:26;;;;;;;5.63;2.72;;;;;;;;;;5004846;28;20065;-69
2022/05/08 12:34:53;;;;;;;5.10;2.50;;;;;;;;;;5001720;28;20049;-68
2022/05/08 12:37:20;;;;;;;7.13;2.97;;;;;;;;;;5003343;28;20034;-69
2022/05/08 12:39:45;;;;;;;7.47;3.25;;;;;;;;;;4993467;28;20119;-68
2022/05/08 12:42:11;;;;;;;6.88;2.60;;;;;;;;;;4985613;28;20038;-71
2022/05/08 12:44:38;;;;;;;5.25;2.63;;;;;;;;;;4984305;28;20108;-69
2022/05/08 12:47:08;;;;;;;7.88;2.63;;;;;;;;;;4998948;28;20041;-71
2022/05/08 12:49:34;;;;;;;7.90;2.63;;;;;;;;;;5003262;28;20042;-70
2022/05/08 12:52:00;;;;;;;6.10;2.80;;;;;;;;;;4991966;28;20042;-70
2022/05/08 12:54:26;;;;;;;5.63;2.60;;;;;;;;;;4995756;28;20030;-71
2022/05/08 12:56:51;;;;;;;4.47;2.30;;;;;;;;;;4993736;28;20053;-72
2022/05/08 13:02:01;;;;;;;4.13;2.45;;;;;;;;;;4996754;28;20116;-72
2022/05/08 13:04:26;;;;;;;5.10;2.40;;;;;;;;;;4999605;28;20085;-72
2022/05/08 13:06:52;;;;;;;8.35;2.53;;;;;;;;;;5003385;28;20046;-72
2022/05/08 13:09:18;;;;;;;5.70;2.75;;;;;;;;;;4987263;28;20037;-71
2022/05/08 13:11:43;;;;;;;5.55;2.35;;;;;;;;;;5005454;28;20391;-71
2022/05/08 13:14:08;;;;;;;6.68;2.40;;;;;;;;;;5002162;28;20846;-71
2022/05/08 13:16:34;;;;;;;6.30;2.25;;;;;;;;;;4986263;28;20185;-71
2022/05/08 13:19:00;;;;;;;6.32;2.15;;;;;;;;;;5002127;28;20044;-71
2022/05/08 13:21:28;;;;;;;6.28;2.30;;;;;;;;;;4998504;28;20494;-70
2022/05/08 13:23:53;;;;;;;6.97;2.13;;;;;;;;;;5004664;28;20087;-72
2022/05/08 13:26:19;;;;;;;8.82;2.78;;;;;;;;;;5005513;28;20049;-71
2022/05/08 13:28:44;;;;;;;6.40;2.28;;;;;;;;;;5005162;28;20193;-71
2022/05/08 13:31:10;;;;;;;6.03;2.60;;;;;;;;;;4995372;28;20069;-71
2022/05/08 13:33:36;;;;;;;5.53;1.95;;;;;;;;;;4993987;28;20038;-71
2022/05/08 13:36:01;;;;;;;4.93;1.90;;;;;;;;;;5006410;28;20033;-71
2022/05/08 13:38:27;;;;;;;6.50;1.90;;;;;;;;;;5004088;28;20058;-71
2022/05/08 13:40:55;;;;;;;4.55;1.80;;;;;;;;;;5003649;28;20060;-71
2022/05/08 13:43:22;;;;;;;5.93;2.00;;;;;;;;;;5003980;28;20057;-72
2022/05/08 13:45:48;;;;;;;5.28;2.20;;;;;;;;;;4985954;28;20725;-72
2022/05/08 13:48:13;;;;;;;4.47;2.08;;;;;;;;;;4989648;28;20026;-72
2022/05/08 13:50:40;;;;;;;4.63;1.85;;;;;;;;;;4988899;28;20042;-72
2022/05/08 13:53:08;;;;;;;5.90;1.85;;;;;;;;;;5003083;28;20088;-72
2022/05/08 13:55:39;;;;;;;3.45;2.00;;;;;;;;;;5007528;28;20703;-73
2022/05/08 13:58:08;;;;;;;2.47;1.90;;;;;;;;;;5009192;28;20539;-73
2022/05/08 14:00:34;;;;;;;5.45;1.98;;;;;;;;;;5008178;28;20402;-72
2022/05/08 14:03:05;;;;;;;5.50;1.77;;;;;;;;;;4993305;28;20022;-71
2022/05/08 14:05:31;;;;;;;5.53;1.80;;;;;;;;;;4995495;28;20073;-72
2022/05/08 14:07:56;;;;;;;6.22;1.90;;;;;;;;;;5004482;28;20029;-72
2022/05/08 14:10:22;;;;;;;9.45;2.53;;;;;;;;;;5001339;28;20553;-72
2022/05/08 14:12:48;;;;;;;3.25;1.90;;;;;;;;;;4996997;28;20644;-72
2022/05/08 14:15:14;;;;;;;5.05;1.92;;;;;;;;;;4996118;28;20062;-72
2022/05/08 14:17:40;;;;;;;4.63;1.80;;;;;;;;;;4995797;28;20049;-72
2022/05/08 14:20:07;;;;;;;6.10;1.88;;;;;;;;;;5007643;28;20129;-72
2022/05/08 14:22:32;;;;;;;4.00;1.60;;;;;;;;;;5000923;28;20125;-72
2022/05/08 14:25:01;;;;;;;5.10;1.95;;;;;;;;;;5004970;28;20129;-72
2022/05/08 14:27:27;;;;;;;3.17;1.40;;;;;;;;;;5008149;28;20046;-71
2022/05/08 14:29:53;;;;;;;3.92;1.80;;;;;;;;;;5003018;28;20052;-72
2022/05/08 14:37:47;;;;;;;4.38;2.08;;;;;;;;;;5007638;28;20143;-71
2022/05/08 14:40:13;;;;;;;4.85;1.95;;;;;;;;;;5006933;28;20514;-71
2022/05/08 14:42:38;;;;;;;3.03;1.73;;;;;;;;;;5005617;28;20041;-70
2022/05/08 14:45:04;;;;;;;5.55;1.92;;;;;;;;;;5009141;28;20026;-71
2022/05/08 14:47:30;;;;;;;5.88;1.88;;;;;;;;;;4996595;28;20042;-70
2022/05/08 14:49:56;;;;;;;4.03;1.75;;;;;;;;;;5007331;28;20120;-70
2022/05/08 14:52:21;;;;;;;3.80;1.80;;;;;;;;;;5007076;28;20045;-70
2022/05/08 14:54:47;;;;;;;2.63;1.58;;;;;;;;;;4990698;28;20042;-69
2022/05/08 14:57:12;;;;;;;5.80;2.05;;;;;;;;;;5006312;28;20034;-71
2022/05/08 14:59:38;;;;;;;4.00;1.45;;;;;;;;;;5000404;28;20041;-71
2022/05/08 15:02:04;;;;;;;3.95;1.80;;;;;;;;;;5008329;28;20034;-70